Scappoose, Oregon
Current Conditions -  °F | °C
As of 4:53 AM on Friday 28 Nov 2014 (Local Time) from KSPB Reporting Station
Light Rain Light Rain  
Wind Chill: 52°   Ceiling: 1500
Heat Index: 52°   Visibility: 6mi
Dew Point: 51°   Wind: 7mph
Humidity: 97%   Direction: 150°SSE
Pressure: 29.69"   Gusts: NA
Location:  45.75°N, 122.88°W
Report Text: KSPB 281253Z AUTO 15006KT 6SM -RA BR BKN015 OVC026 11/11 A2969 RMK AO2 SLP052 P0002 T01110106
Loading
Personal Weather Stations






























Interactive Weather Map New forecast layout! Learn more

10-Day Weather Forecast

Advertisements
Track Severe Weather on mobile